createdAt,value
2023-03-21T04:37:23.622Z,100.00
2023-03-21T04:39:56.490Z,100.00
2023-03-21T04:42:28.634Z,100.00
2023-03-21T04:45:06.980Z,100.00
2023-03-21T04:47:42.163Z,100.00
2023-03-21T04:50:15.942Z,100.00
2023-03-21T04:52:50.747Z,100.00
2023-03-21T04:55:23.110Z,100.00
2023-03-21T04:57:59.776Z,100.00
2023-03-21T05:00:32.252Z,100.00
2023-03-21T05:03:09.808Z,100.00
2023-03-21T05:05:42.070Z,100.00
2023-03-21T05:08:14.769Z,100.00
2023-03-21T05:10:47.230Z,100.00
2023-03-21T05:13:19.367Z,100.00
2023-03-21T05:15:52.703Z,100.00
2023-03-21T05:18:26.476Z,100.00
2023-03-21T05:21:12.276Z,100.00
2023-03-21T05:23:44.716Z,100.00
2023-03-21T05:26:16.814Z,100.00
2023-03-21T05:28:59.155Z,100.00
2023-03-21T05:31:31.152Z,100.00
2023-03-21T05:34:11.781Z,100.00
2023-03-21T05:36:43.849Z,100.00
2023-03-21T05:39:19.705Z,100.00
2023-03-21T05:42:02.352Z,100.00
2023-03-21T05:44:35.537Z,100.00
2023-03-21T05:47:09.960Z,100.00
2023-03-21T05:49:47.266Z,100.00
2023-03-21T05:52:19.799Z,100.00
2023-03-21T05:54:52.677Z,100.00
2023-03-21T05:57:28.974Z,100.00
2023-03-21T06:00:10.195Z,100.00
2023-03-21T06:02:51.350Z,100.00
2023-03-21T06:05:47.140Z,100.00
2023-03-21T06:08:26.852Z,100.00
2023-03-21T06:10:58.979Z,100.00
2023-03-21T06:13:32.948Z,100.00
2023-03-21T06:16:05.455Z,100.00
2023-03-21T06:18:38.770Z,100.00
2023-03-21T06:21:23.885Z,100.00
2023-03-21T06:23:58.289Z,100.00
2023-03-21T06:26:30.321Z,100.00
2023-03-21T06:29:02.351Z,100.00
2023-03-21T06:31:35.691Z,100.00
2023-03-21T06:34:10.481Z,100.00
2023-03-21T06:36:46.811Z,100.00
2023-03-21T06:39:19.344Z,100.00
2023-03-21T06:41:54.428Z,100.00
2023-03-21T06:44:27.020Z,100.00
2023-03-21T06:47:07.587Z,100.00
2023-03-21T06:49:41.571Z,100.00
2023-03-21T06:52:14.958Z,100.00
2023-03-21T06:54:47.269Z,100.00
2023-03-21T06:57:22.229Z,100.00
2023-03-21T06:59:57.366Z,100.00
2023-03-21T07:02:30.050Z,100.00
2023-03-21T07:05:09.257Z,100.00
2023-03-21T07:07:41.837Z,100.00
2023-03-21T07:10:15.829Z,100.00
2023-03-21T07:12:55.142Z,100.00
2023-03-21T07:15:39.696Z,100.00
2023-03-21T07:18:12.388Z,100.00
2023-03-21T07:20:48.060Z,100.00
2023-03-21T07:23:20.925Z,100.00
2023-03-21T07:25:54.567Z,100.00
2023-03-21T07:28:26.728Z,100.00
2023-03-21T07:31:00.505Z,100.00
2023-03-21T07:33:34.084Z,100.00
2023-03-21T07:36:11.000Z,100.00
2023-03-21T07:38:43.501Z,100.00
2023-03-21T07:43:48.348Z,100.00
2023-03-21T07:46:20.411Z,100.00
2023-03-21T07:48:53.828Z,100.00
2023-03-21T07:51:27.382Z,100.00
2023-03-21T07:53:59.825Z,100.00
2023-03-21T07:56:31.916Z,100.00
2023-03-21T07:59:05.559Z,100.00
2023-03-21T08:01:37.541Z,100.00
2023-03-21T08:04:09.679Z,100.00
2023-03-21T08:06:43.672Z,100.00
2023-03-21T08:09:15.793Z,100.00
2023-03-21T08:11:48.011Z,100.00
2023-03-21T08:14:20.094Z,100.00
2023-03-21T08:16:52.193Z,100.00
2023-03-21T08:19:27.198Z,100.00
2023-03-21T08:22:01.023Z,100.00
2023-03-21T08:24:34.390Z,100.00
2023-03-21T08:27:06.692Z,100.00
2023-03-21T08:29:42.491Z,100.00
2023-03-21T08:32:14.696Z,100.00
2023-03-21T08:34:46.946Z,100.00
2023-03-21T08:37:19.200Z,100.00
2023-03-21T08:39:51.291Z,100.00
2023-03-21T08:42:23.965Z,100.00
2023-03-21T08:44:56.093Z,100.00
2023-03-21T08:47:28.474Z,100.00
2023-03-21T08:50:01.043Z,100.00
2023-03-21T08:52:33.133Z,100.00
2023-03-21T08:55:05.838Z,100.00
2023-03-21T08:57:38.706Z,100.00
2023-03-21T09:00:17.434Z,100.00
2023-03-21T09:02:52.878Z,100.00
2023-03-21T09:05:26.009Z,100.00
2023-03-21T09:07:58.090Z,100.00
2023-03-21T09:10:30.452Z,100.00
2023-03-21T09:13:02.461Z,100.00
2023-03-21T09:15:35.470Z,100.00
2023-03-21T09:18:15.797Z,100.00
2023-03-21T09:20:50.536Z,100.00
2023-03-21T09:23:23.000Z,100.00
2023-03-21T09:25:55.411Z,100.00
2023-03-21T09:28:28.378Z,100.00
2023-03-21T09:31:02.807Z,100.00
2023-03-21T09:33:35.392Z,100.00
2023-03-21T09:36:11.854Z,100.00
2023-03-21T09:38:45.726Z,100.00
2023-03-21T09:41:32.372Z,100.00
2023-03-21T09:44:22.941Z,100.00
2023-03-21T09:46:56.976Z,100.00
2023-03-21T09:49:34.616Z,100.00
2023-03-21T09:52:14.570Z,100.00
2023-03-21T09:54:47.273Z,100.00
2023-03-21T09:57:31.889Z,100.00
2023-03-21T10:00:12.266Z,100.00
2023-03-21T10:02:48.056Z,100.00
2023-03-21T10:05:24.513Z,100.00
2023-03-21T10:08:04.901Z,100.00
2023-03-21T10:10:37.111Z,99.14
2023-03-21T10:13:16.862Z,99.19
2023-03-21T10:15:49.149Z,99.88
2023-03-21T10:18:27.973Z,99.96
2023-03-21T10:21:00.720Z,99.49
2023-03-21T10:23:34.391Z,99.30
2023-03-21T10:26:10.306Z,98.99
2023-03-21T10:28:53.181Z,99.02
2023-03-21T10:31:27.504Z,98.99
2023-03-21T10:34:07.872Z,98.77
2023-03-21T10:36:39.954Z,98.35
2023-03-21T10:39:23.083Z,96.78
2023-03-21T10:41:55.510Z,97.08
2023-03-21T10:44:32.760Z,95.67
2023-03-21T10:47:09.933Z,96.42
2023-03-21T10:50:06.178Z,96.74
2023-03-21T10:52:36.838Z,97.52
2023-03-21T10:55:21.658Z,97.91
2023-03-21T10:58:00.639Z,99.18
2023-03-21T11:00:39.030Z,98.89
2023-03-21T11:03:24.341Z,98.06
2023-03-21T11:06:02.959Z,96.60
2023-03-21T11:08:42.930Z,96.30
2023-03-21T11:11:23.493Z,94.83
2023-03-21T11:13:58.937Z,94.61
2023-03-21T11:16:39.014Z,94.21
2023-03-21T11:19:20.894Z,93.46
2023-03-21T11:21:54.196Z,93.66
2023-03-21T11:24:31.977Z,93.44
2023-03-21T11:27:09.626Z,93.32
2023-03-21T11:29:47.035Z,93.74
2023-03-21T11:32:25.009Z,93.11
2023-03-21T11:35:02.291Z,91.85
2023-03-21T11:37:40.924Z,92.59
2023-03-21T11:40:23.734Z,92.56
2023-03-21T11:43:00.124Z,89.98
2023-03-21T11:45:35.712Z,91.99
2023-03-21T11:48:15.412Z,92.28
2023-03-21T11:50:51.557Z,92.32
2023-03-21T11:53:32.419Z,90.29
2023-03-21T11:56:17.696Z,90.13
2023-03-21T11:59:02.239Z,90.65
2023-03-21T12:01:47.601Z,91.19
2023-03-21T12:04:39.700Z,91.44
2023-03-21T12:07:28.936Z,91.34
2023-03-21T12:10:21.684Z,91.12
2023-03-21T12:13:02.590Z,91.45
2023-03-21T12:15:41.799Z,91.23
2023-03-21T12:18:24.520Z,91.04
2023-03-21T12:20:59.002Z,91.00
2023-03-21T12:23:53.698Z,91.01
2023-03-21T12:26:29.108Z,90.97
2023-03-21T12:29:19.464Z,90.96
2023-03-21T12:32:06.066Z,91.35
2023-03-21T12:35:08.965Z,91.69
2023-03-21T12:37:49.863Z,91.75
2023-03-21T12:40:39.017Z,91.58
2023-03-21T12:43:39.560Z,91.39
2023-03-21T12:46:20.457Z,91.76
2023-03-21T12:48:57.578Z,91.45
2023-03-21T12:54:40.921Z,91.34
2023-03-21T12:57:18.582Z,90.88
2023-03-21T12:59:55.604Z,90.42
2023-03-21T13:02:34.333Z,90.23
2023-03-21T13:05:18.080Z,90.37
2023-03-21T13:07:55.077Z,90.45
2023-03-21T13:10:27.757Z,89.83
2023-03-21T13:13:10.331Z,89.29
2023-03-21T13:15:56.815Z,89.57
2023-03-21T13:18:42.172Z,89.25
2023-03-21T13:21:21.784Z,89.58
2023-03-21T13:24:03.739Z,89.42
2023-03-21T13:26:41.275Z,90.08
2023-03-21T13:29:23.589Z,90.51
2023-03-21T13:31:58.286Z,90.39
2023-03-21T13:34:31.345Z,90.19
2023-03-21T13:37:04.088Z,90.02
2023-03-21T13:39:38.066Z,89.98
2023-03-21T13:42:23.657Z,90.04
2023-03-21T13:45:03.539Z,89.48
2023-03-21T13:47:43.309Z,90.20
2023-03-21T13:50:54.857Z,90.06
2023-03-21T13:53:35.549Z,90.08
2023-03-21T13:56:24.521Z,89.33
2023-03-21T13:59:04.499Z,89.27
2023-03-21T14:01:42.589Z,89.36
2023-03-21T14:04:24.055Z,89.44
2023-03-21T14:07:08.194Z,89.41
2023-03-21T14:09:43.996Z,89.27
2023-03-21T14:12:19.770Z,89.13
2023-03-21T14:14:55.230Z,88.53
2023-03-21T14:17:31.042Z,88.42
2023-03-21T14:20:11.838Z,88.29
2023-03-21T14:22:47.491Z,87.65
2023-03-21T14:25:21.578Z,87.81
2023-03-21T14:27:56.703Z,87.77
2023-03-21T14:30:33.455Z,86.84
2023-03-21T14:33:10.349Z,87.19
2023-03-21T14:35:43.719Z,87.21
2023-03-21T14:38:23.789Z,87.03
2023-03-21T14:40:59.006Z,87.02
2023-03-21T14:43:34.248Z,86.54
2023-03-21T14:46:06.915Z,85.90
2023-03-21T14:48:39.037Z,85.54
2023-03-21T14:51:14.348Z,85.99
2023-03-21T14:53:47.366Z,85.93
2023-03-21T14:56:25.285Z,85.80
2023-03-21T14:58:57.483Z,86.17
2023-03-21T15:01:32.605Z,86.52
2023-03-21T15:04:07.880Z,86.60
2023-03-21T15:06:57.134Z,86.21
2023-03-21T15:09:31.693Z,86.50
2023-03-21T15:12:09.110Z,86.46
2023-03-21T15:14:41.763Z,86.69
2023-03-21T15:17:13.990Z,86.61
2023-03-21T15:19:48.639Z,86.59
2023-03-21T15:22:31.517Z,86.82
2023-03-21T15:25:07.760Z,86.57
2023-03-21T15:27:44.770Z,86.65
2023-03-21T15:30:28.048Z,86.74
2023-03-21T15:33:10.588Z,86.78
2023-03-21T15:35:46.072Z,86.85
2023-03-21T15:38:32.533Z,87.01
2023-03-21T15:41:30.194Z,86.73
2023-03-21T15:44:14.752Z,86.79
2023-03-21T15:46:49.885Z,86.78
2023-03-21T15:49:29.004Z,86.82
2023-03-21T15:52:13.949Z,87.15
2023-03-21T15:54:50.301Z,87.18
2023-03-21T15:57:25.289Z,86.97
2023-03-21T16:00:05.876Z,86.74
2023-03-21T16:02:45.682Z,86.63
2023-03-21T16:05:27.653Z,86.43
2023-03-21T16:08:08.102Z,86.53
2023-03-21T16:10:42.890Z,86.85
2023-03-21T16:13:15.255Z,86.96
2023-03-21T16:15:50.193Z,87.00
2023-03-21T16:18:22.333Z,87.09
2023-03-21T16:20:57.422Z,87.06
2023-03-21T16:23:32.121Z,87.13
2023-03-21T16:26:06.811Z,87.30
2023-03-21T16:28:42.571Z,87.37
2023-03-21T16:31:17.760Z,87.45
2023-03-21T16:33:51.086Z,87.40
2023-03-21T16:36:25.041Z,87.68
2023-03-21T16:39:00.286Z,87.80
2023-03-21T16:41:32.611Z,87.74
2023-03-21T16:44:04.688Z,87.77
2023-03-21T16:46:37.037Z,87.85
2023-03-21T16:49:21.708Z,87.89
2023-03-21T16:51:55.039Z,87.98
2023-03-21T16:54:27.095Z,88.08
2023-03-21T16:57:30.652Z,88.19
2023-03-21T17:00:09.634Z,88.31
2023-03-21T17:02:42.856Z,88.40
2023-03-21T17:05:15.508Z,88.61
2023-03-21T17:07:47.898Z,88.66
2023-03-21T17:10:23.306Z,88.71
2023-03-21T17:12:56.923Z,88.71
2023-03-21T17:15:29.441Z,88.87
2023-03-21T17:18:01.522Z,88.91
2023-03-21T17:20:40.313Z,88.95
2023-03-21T17:23:14.719Z,88.98
2023-03-21T17:25:50.180Z,88.97
2023-03-21T17:28:27.849Z,89.08
2023-03-21T17:31:02.085Z,89.14
2023-03-21T17:33:37.236Z,89.31
2023-03-21T17:36:16.269Z,89.37
2023-03-21T17:38:49.468Z,89.56
2023-03-21T17:41:24.544Z,89.53
2023-03-21T17:44:09.688Z,89.68
2023-03-21T17:46:50.280Z,89.95
2023-03-21T17:49:24.376Z,89.93
2023-03-21T17:51:57.238Z,90.06
2023-03-21T17:54:29.473Z,90.17
2023-03-21T17:57:04.945Z,90.12
2023-03-21T17:59:37.562Z,90.24
2023-03-21T18:02:10.888Z,90.25
2023-03-21T18:04:43.463Z,90.27
2023-03-21T18:07:28.688Z,90.52
2023-03-21T18:10:17.184Z,90.54
2023-03-21T18:12:56.175Z,90.52
2023-03-21T18:15:30.747Z,90.84
2023-03-21T18:18:05.915Z,90.96
2023-03-21T18:20:52.168Z,91.06
2023-03-21T18:23:29.010Z,91.12
2023-03-21T18:26:01.771Z,91.13
2023-03-21T18:28:33.974Z,91.23
2023-03-21T18:31:12.593Z,91.16
2023-03-21T18:33:47.501Z,91.30
2023-03-21T18:36:25.339Z,91.33
2023-03-21T18:38:58.943Z,91.52
2023-03-21T18:41:31.177Z,91.47
2023-03-21T18:44:13.001Z,91.59
2023-03-21T18:46:50.791Z,91.70
2023-03-21T18:52:16.894Z,91.87
2023-03-21T18:54:49.392Z,91.86
2023-03-21T18:57:38.682Z,92.03
2023-03-21T19:00:17.508Z,92.04
2023-03-21T19:03:09.833Z,92.20
2023-03-21T19:05:57.696Z,92.37
2023-03-21T19:08:31.796Z,92.23
2023-03-21T19:11:06.403Z,92.20
2023-03-21T19:13:39.345Z,92.48
2023-03-21T19:16:14.865Z,92.50
2023-03-21T19:18:54.958Z,92.67
2023-03-21T19:21:29.711Z,92.60
2023-03-21T19:24:26.438Z,92.59
2023-03-21T19:26:54.408Z,92.61
2023-03-21T19:29:27.218Z,92.73
2023-03-21T19:32:02.801Z,92.66
2023-03-21T19:34:35.661Z,92.65
2023-03-21T19:37:08.133Z,92.94
2023-03-21T19:39:44.126Z,92.85
2023-03-21T19:42:23.514Z,93.03
2023-03-21T19:44:59.193Z,93.03
2023-03-21T19:47:31.903Z,93.21
2023-03-21T19:53:03.856Z,93.43
2023-03-21T19:55:36.519Z,93.54
2023-03-21T19:58:09.228Z,93.62
2023-03-21T20:00:41.446Z,93.48
2023-03-21T20:03:23.797Z,93.61
2023-03-21T20:06:03.842Z,93.70
2023-03-21T20:09:13.699Z,93.73
2023-03-21T20:11:32.944Z,93.79
2023-03-21T20:14:05.718Z,93.91
2023-03-21T20:16:44.123Z,94.23
2023-03-21T20:19:22.982Z,94.34
2023-03-21T20:21:59.795Z,93.95
2023-03-21T20:24:44.492Z,94.00
2023-03-21T20:27:25.495Z,94.29
2023-03-21T20:30:09.659Z,94.39
2023-03-21T20:32:47.108Z,94.32
2023-03-21T20:35:39.888Z,94.28
2023-03-21T20:38:13.590Z,94.36
2023-03-21T20:40:46.249Z,94.33
2023-03-21T20:44:08.867Z,94.39
2023-03-21T20:46:18.972Z,94.56
2023-03-21T20:48:59.867Z,94.79
2023-03-21T20:54:27.714Z,95.00
2023-03-21T20:57:04.916Z,95.03
2023-03-21T20:59:40.066Z,95.06
2023-03-21T21:02:13.605Z,94.88
2023-03-21T21:05:12.216Z,95.16
2023-03-21T21:07:40.141Z,95.25
2023-03-21T21:10:15.258Z,95.27
2023-03-21T21:12:47.426Z,95.39
2023-03-21T21:15:19.620Z,95.53
2023-03-21T21:18:05.427Z,95.33
2023-03-21T21:20:42.554Z,95.73
2023-03-21T21:23:15.024Z,95.80
2023-03-21T21:25:53.387Z,95.85
2023-03-21T21:28:29.504Z,95.89
2023-03-21T21:31:13.592Z,95.88
2023-03-21T21:33:50.162Z,96.21
2023-03-21T21:36:23.336Z,96.05
2023-03-21T21:38:56.127Z,95.99
2023-03-21T21:42:13.975Z,96.15
2023-03-21T21:44:47.482Z,96.37
2023-03-21T21:47:19.626Z,96.54
2023-03-21T21:49:51.649Z,96.70
2023-03-21T21:52:24.307Z,96.80
2023-03-21T21:54:56.337Z,96.82
2023-03-21T21:57:30.582Z,96.79
2023-03-21T22:00:06.414Z,96.71
2023-03-21T22:02:44.143Z,96.87
2023-03-21T22:05:19.098Z,97.08
2023-03-21T22:07:53.658Z,97.26
2023-03-21T22:10:28.526Z,97.33
2023-03-21T22:13:00.675Z,97.23
2023-03-21T22:15:33.392Z,97.15
2023-03-21T22:18:07.196Z,97.22
2023-03-21T22:20:39.331Z,97.22
2023-03-21T22:23:12.185Z,97.25
2023-03-21T22:25:49.605Z,97.29
2023-03-21T22:28:25.825Z,97.37
2023-03-21T22:30:58.318Z,97.51
2023-03-21T22:33:33.547Z,97.76
2023-03-21T22:36:05.946Z,97.79
2023-03-21T22:38:38.416Z,97.67
2023-03-21T22:41:11.211Z,97.71
2023-03-21T22:43:43.177Z,97.81
2023-03-21T22:46:15.673Z,97.82
2023-03-21T22:48:48.801Z,97.82
2023-03-21T22:51:21.158Z,98.06
2023-03-21T22:53:53.118Z,97.97
2023-03-21T22:56:25.282Z,97.83
2023-03-21T22:58:58.469Z,98.10
2023-03-21T23:01:31.598Z,98.63
2023-03-21T23:04:03.675Z,98.70
2023-03-21T23:06:38.767Z,99.34
2023-03-21T23:09:11.465Z,99.43
2023-03-21T23:11:45.446Z,99.72
2023-03-21T23:14:19.492Z,99.74
2023-03-21T23:16:52.713Z,99.90
2023-03-21T23:19:28.876Z,99.89
2023-03-21T23:22:01.644Z,100.00
2023-03-21T23:24:35.587Z,99.95
2023-03-21T23:27:07.710Z,100.00
2023-03-21T23:29:39.728Z,99.98
2023-03-21T23:35:21.854Z,100.00
2023-03-21T23:37:53.857Z,100.00
2023-03-21T23:43:38.720Z,99.99
2023-03-21T23:46:12.778Z,100.00
2023-03-21T23:48:45.839Z,100.00
2023-03-21T23:51:19.208Z,99.99
2023-03-21T23:53:56.640Z,100.00
2023-03-21T23:56:32.254Z,100.00
2023-03-21T23:59:05.226Z,99.98
